Time;durP1;ratioP1;P1;durP2;ratioP2;P2;SDS_P1;SDS_P2;PMS_P1;PMS_P2;Temp;Humidity;BMP_temperature;BMP_pressure;BME280_temperature;BME280_humidity;BME280_pressure;Samples;Min_cycle;Max_cycle;Signal;HPM_P1;HPM_P2
2023/12/01 00:00:39;;;;;;;1.08;1.08;;;1.10;90.90;;;;;;5062619;28;20046;-77
2023/12/01 00:03:05;;;;;;;1.00;1.00;;;1.10;90.90;;;;;;5079534;28;20028;-76
2023/12/01 00:05:31;;;;;;;1.00;1.00;;;1.10;90.90;;;;;;5114647;28;20035;-77
2023/12/01 00:07:57;;;;;;;0.90;0.90;;;1.10;90.90;;;;;;5079430;28;20034;-76
2023/12/01 00:10:22;;;;;;;1.02;1.02;;;1.10;90.90;;;;;;5096100;28;20024;-77
2023/12/01 00:12:48;;;;;;;1.00;1.00;;;1.10;90.90;;;;;;5079217;28;20035;-77
2023/12/01 00:15:14;;;;;;;1.00;1.00;;;1.10;90.90;;;;;;5114412;28;20047;-77
2023/12/01 00:17:39;;;;;;;1.00;1.00;;;1.10;90.90;;;;;;5096001;28;20467;-77
2023/12/01 00:20:06;;;;;;;0.90;0.90;;;1.10;90.90;;;;;;5062279;28;20431;-77
2023/12/01 00:22:32;;;;;;;0.90;0.90;;;1.10;90.90;;;;;;5061114;28;20036;-76
2023/12/01 00:24:58;;;;;;;0.90;0.90;;;1.10;90.90;;;;;;5095887;28;20406;-76
2023/12/01 00:27:23;;;;;;;0.95;0.95;;;1.10;90.90;;;;;;5079083;28;20494;-76
2023/12/01 00:29:49;;;;;;;0.93;0.93;;;1.10;91.00;;;;;;5062222;28;20038;-76
2023/12/01 00:32:15;;;;;;;1.30;1.20;;;1.00;90.90;;;;;;5078919;28;20479;-76
2023/12/01 00:34:40;;;;;;;1.30;1.20;;;1.00;90.90;;;;;;5078953;28;20108;-77
2023/12/01 00:37:06;;;;;;;1.00;1.00;;;1.00;90.90;;;;;;5095750;28;20440;-76
2023/12/01 00:39:32;;;;;;;1.10;1.10;;;1.00;91.00;;;;;;5095608;28;20491;-77
2023/12/01 00:41:58;;;;;;;1.05;1.05;;;1.00;91.00;;;;;;5078842;28;20049;-76
2023/12/01 00:44:23;;;;;;;0.90;0.90;;;0.90;90.90;;;;;;5079093;28;20360;-76
2023/12/01 00:46:49;;;;;;;1.00;1.00;;;1.00;90.90;;;;;;5095517;28;20046;-76
2023/12/01 00:49:15;;;;;;;1.00;1.00;;;0.90;90.90;;;;;;5078773;28;20429;-76
2023/12/01 00:51:43;;;;;;;1.10;1.10;;;0.90;90.90;;;;;;5113525;28;20548;-76
2023/12/01 00:54:09;;;;;;;0.90;0.90;;;0.90;90.90;;;;;;5062428;28;20114;-76
2023/12/01 00:56:35;;;;;;;1.00;1.00;;;0.90;90.90;;;;;;5095631;28;20213;-76
2023/12/01 00:59:00;;;;;;;1.10;1.10;;;0.90;90.90;;;;;;5078151;28;20058;-76
2023/12/01 01:01:26;;;;;;;1.00;1.00;;;0.90;90.90;;;;;;5061572;28;20024;-76
2023/12/01 01:03:52;;;;;;;0.90;0.90;;;0.80;90.90;;;;;;5078529;28;20032;-76
2023/12/01 01:06:18;;;;;;;0.90;0.90;;;0.80;90.90;;;;;;5061582;28;20023;-76
2023/12/01 01:08:43;;;;;;;0.88;0.88;;;0.80;90.90;;;;;;5061430;28;20055;-76
2023/12/01 01:11:09;;;;;;;1.23;1.13;;;0.80;90.90;;;;;;5078241;28;20537;-76
2023/12/01 01:13:35;;;;;;;0.95;0.95;;;0.80;90.90;;;;;;5078243;28;20027;-76
2023/12/01 01:16:01;;;;;;;0.90;0.90;;;0.80;90.90;;;;;;5113083;28;20125;-76
2023/12/01 01:18:26;;;;;;;1.48;1.38;;;0.80;90.90;;;;;;5094933;28;20114;-76
2023/12/01 01:20:52;;;;;;;0.98;0.98;;;0.80;90.90;;;;;;5078114;28;20034;-76
2023/12/01 01:23:18;;;;;;;1.00;1.00;;;0.80;90.90;;;;;;5061416;28;20031;-76
2023/12/01 01:25:44;;;;;;;0.93;0.93;;;0.80;90.90;;;;;;5077910;28;20051;-76
2023/12/01 01:28:09;;;;;;;0.90;0.90;;;0.80;90.90;;;;;;5077993;28;20071;-76
2023/12/01 01:30:35;;;;;;;1.10;1.10;;;0.80;90.90;;;;;;5077697;28;20536;-76
2023/12/01 01:33:01;;;;;;;0.90;0.90;;;0.80;90.90;;;;;;5077798;28;20032;-76
2023/12/01 01:35:27;;;;;;;1.23;1.13;;;0.70;90.90;;;;;;5060627;28;20422;-76
2023/12/01 01:37:52;;;;;;;1.00;1.00;;;0.70;90.90;;;;;;5077619;28;20108;-76
2023/12/01 01:40:18;;;;;;;1.00;1.00;;;0.70;90.90;;;;;;5077527;28;20375;-77
2023/12/01 01:42:44;;;;;;;1.00;1.00;;;0.80;91.10;;;;;;5077420;28;20028;-76
2023/12/01 01:45:10;;;;;;;1.02;1.02;;;0.70;90.80;;;;;;5060721;28;20039;-76
2023/12/01 01:47:36;;;;;;;1.00;1.00;;;0.70;90.80;;;;;;5112610;28;20467;-76
2023/12/01 01:50:02;;;;;;;;;;;0.70;90.80;;;;;;5094848;28;20030;-76
2023/12/01 01:52:29;;;;;;;1.23;1.15;;;0.70;90.90;;;;;;5077307;28;19940;-77
2023/12/01 01:54:55;;;;;;;1.30;1.20;;;0.60;90.80;;;;;;5112605;28;20383;-76
2023/12/01 01:57:21;;;;;;;1.02;1.02;;;0.60;90.90;;;;;;5061004;28;20122;-76
2023/12/01 01:59:47;;;;;;;1.40;1.30;;;0.60;91.00;;;;;;5094087;28;20058;-76
2023/12/01 02:02:13;;;;;;;1.20;1.17;;;0.60;91.00;;;;;;5060669;28;20059;-76
2023/12/01 02:04:39;;;;;;;1.30;1.20;;;0.60;90.90;;;;;;5094070;28;20028;-76
2023/12/01 02:07:05;;;;;;;1.08;1.08;;;0.60;90.90;;;;;;5093733;28;20031;-76
2023/12/01 02:09:33;;;;;;;1.15;1.10;;;0.60;90.80;;;;;;5077034;28;20032;-76
2023/12/01 02:11:59;;;;;;;1.30;1.20;;;0.60;90.80;;;;;;5093803;28;20620;-76
2023/12/01 02:14:25;;;;;;;1.38;1.27;;;0.60;90.80;;;;;;5093899;28;20100;-76
2023/12/01 02:16:51;;;;;;;1.30;1.20;;;0.60;90.80;;;;;;5060333;28;20085;-76
2023/12/01 02:19:18;;;;;;;1.30;1.20;;;0.50;90.80;;;;;;5093987;28;20024;-76
2023/12/01 02:21:45;;;;;;;1.17;1.10;;;0.50;90.80;;;;;;5077146;28;20039;-76
2023/12/01 02:24:11;;;;;;;1.10;1.10;;;0.50;90.80;;;;;;5093511;28;20031;-76
2023/12/01 02:26:37;;;;;;;1.30;1.20;;;0.50;90.80;;;;;;5093559;28;20024;-76
2023/12/01 02:29:04;;;;;;;1.00;1.00;;;0.50;90.80;;;;;;5060031;28;20034;-76
2023/12/01 02:31:31;;;;;;;1.33;1.23;;;0.50;90.80;;;;;;5111834;28;20028;-76
2023/12/01 02:33:56;;;;;;;1.40;1.30;;;0.40;90.80;;;;;;5093771;28;20030;-76
2023/12/01 02:36:22;;;;;;;1.40;1.30;;;0.50;90.80;;;;;;5076664;28;20035;-76
2023/12/01 02:38:48;;;;;;;1.30;1.20;;;0.40;90.80;;;;;;5076553;28;20031;-76
2023/12/01 02:41:20;;;;;;;1.30;1.20;;;0.40;90.80;;;;;;5093537;28;20035;-76
2023/12/01 02:43:46;;;;;;;1.30;1.20;;;0.40;90.80;;;;;;5111946;28;20036;-76
2023/12/01 02:46:12;;;;;;;1.30;1.20;;;0.40;90.80;;;;;;5093101;28;20039;-76
2023/12/01 02:48:41;;;;;;;1.10;1.10;;;0.40;90.80;;;;;;5093316;28;20027;-77
2023/12/01 02:51:07;;;;;;;1.13;1.10;;;0.40;90.80;;;;;;5111635;28;20035;-76
2023/12/01 02:53:34;;;;;;;1.10;1.10;;;0.40;90.80;;;;;;5076437;28;20031;-76
2023/12/01 02:56:00;;;;;;;;;;;0.40;90.80;;;;;;5076842;28;20505;-76
2023/12/01 02:58:25;;;;;;;1.05;1.05;;;0.40;90.80;;;;;;5076404;28;19990;-76
2023/12/01 03:00:51;;;;;;;1.40;1.30;;;0.40;90.80;;;;;;5076561;28;20365;-76
2023/12/01 03:03:17;;;;;;;1.50;1.40;;;0.30;90.80;;;;;;5093380;28;20042;-76
2023/12/01 03:05:43;;;;;;;1.48;1.38;;;0.30;90.80;;;;;;5059598;28;20093;-76
2023/12/01 03:08:08;;;;;;;1.30;1.20;;;0.40;90.80;;;;;;5059617;28;20437;-76
2023/12/01 03:10:35;;;;;;;1.60;1.50;;;0.30;90.80;;;;;;5076181;28;20073;-76
2023/12/01 03:13:01;;;;;;;1.00;1.00;;;0.30;90.80;;;;;;5093015;28;20027;-76
2023/12/01 03:15:27;;;;;;;1.00;1.00;;;0.30;90.70;;;;;;5076502;28;20476;-76
2023/12/01 03:17:52;;;;;;;1.17;1.10;;;0.30;90.70;;;;;;5092911;28;20039;-76
2023/12/01 03:20:18;;;;;;;1.30;1.20;;;0.30;90.80;;;;;;5076174;28;20359;-76
2023/12/01 03:22:50;;;;;;;1.40;1.30;;;0.30;90.80;;;;;;5076543;28;20092;-76
2023/12/01 03:25:17;;;;;;;1.30;1.20;;;0.20;90.80;;;;;;5076524;28;20060;-76
2023/12/01 03:27:45;;;;;;;1.30;1.20;;;0.30;90.80;;;;;;5111416;28;20089;-76
2023/12/01 03:30:16;;;;;;;1.30;1.20;;;0.30;90.80;;;;;;5092852;28;20024;-76
2023/12/01 03:32:45;;;;;;;1.23;1.15;;;0.20;90.80;;;;;;5111334;28;20020;-76
2023/12/01 03:35:16;;;;;;;1.08;1.08;;;0.20;90.80;;;;;;5092789;28;20028;-76
2023/12/01 03:37:43;;;;;;;1.23;1.15;;;0.20;90.80;;;;;;5076112;28;20597;-76
2023/12/01 03:40:13;;;;;;;1.30;1.20;;;0.20;90.80;;;;;;5111104;28;20379;-76
2023/12/01 03:42:44;;;;;;;1.30;1.20;;;0.20;90.80;;;;;;5111210;28;20034;-76
2023/12/01 03:45:12;;;;;;;1.30;1.20;;;0.20;90.80;;;;;;5092941;28;20120;-77
2023/12/01 03:47:38;;;;;;;1.13;1.10;;;0.10;90.80;;;;;;5076300;28;20270;-76
2023/12/01 03:50:04;;;;;;;1.10;1.10;;;0.20;90.80;;;;;;5075796;28;20027;-76
2023/12/01 03:52:31;;;;;;;1.30;1.20;;;0.20;90.80;;;;;;5059211;28;20118;-76
2023/12/01 03:54:58;;;;;;;1.40;1.30;;;0.20;90.70;;;;;;5092977;28;20053;-76
2023/12/01 03:57:27;;;;;;;1.48;1.38;;;0.20;90.70;;;;;;5112640;28;20023;-76
2023/12/01 03:59:56;;;;;;;1.40;1.30;;;0.20;90.70;;;;;;5080084;28;20032;-76
2023/12/01 04:02:22;;;;;;;1.33;1.23;;;0.10;90.70;;;;;;5096488;28;20031;-76
2023/12/01 04:04:49;;;;;;;1.40;1.30;;;0.10;90.70;;;;;;5096264;28;20038;-76
2023/12/01 04:07:15;;;;;;;1.30;1.20;;;0.10;90.90;;;;;;5096224;28;20024;-76
2023/12/01 04:09:41;;;;;;;1.30;1.20;;;0.10;90.70;;;;;;5096260;28;20427;-76
2023/12/01 04:12:07;;;;;;;1.30;1.20;;;0.10;90.70;;;;;;5096390;28;20536;-76
2023/12/01 04:14:33;;;;;;;1.33;1.23;;;0.10;90.70;;;;;;5079696;28;20032;-76
2023/12/01 04:17:08;;;;;;;1.50;1.40;;;0.00;90.70;;;;;;5096094;28;20081;-76
2023/12/01 04:19:35;;;;;;;1.30;1.20;;;0.00;90.70;;;;;;5096009;28;20491;-76
2023/12/01 04:22:04;;;;;;;1.30;1.20;;;0.00;90.70;;;;;;5096006;28;20486;-76
2023/12/01 04:24:33;;;;;;;1.27;1.17;;;0.00;90.70;;;;;;5096060;28;20046;-76
2023/12/01 04:27:02;;;;;;;1.35;1.25;;;0.00;90.80;;;;;;5079398;28;20042;-76
2023/12/01 04:29:29;;;;;;;1.40;1.30;;;0.00;90.70;;;;;;5096379;28;20443;-76
2023/12/01 04:31:55;;;;;;;1.35;1.25;;;0.00;90.70;;;;;;5095654;28;20190;-76
2023/12/01 04:34:21;;;;;;;;;;;0.00;90.70;;;;;;5096471;28;20024;-76
2023/12/01 04:36:48;;;;;;;1.10;1.10;;;0.00;90.70;;;;;;5078894;28;20142;-76
2023/12/01 04:39:14;;;;;;;1.65;1.55;;;0.00;90.70;;;;;;5062384;28;20031;-76
2023/12/01 04:41:40;;;;;;;1.50;1.40;;;0.00;90.70;;;;;;5062139;28;20028;-76
2023/12/01 04:44:06;;;;;;;1.42;1.33;;;-0.10;90.60;;;;;;5095540;28;20024;-76
2023/12/01 04:46:31;;;;;;;1.27;1.17;;;-0.10;90.70;;;;;;5095419;28;20380;-76
2023/12/01 04:48:57;;;;;;;1.40;1.30;;;-0.10;90.70;;;;;;5078524;28;20490;-76
2023/12/01 04:51:23;;;;;;;1.27;1.17;;;-0.10;90.70;;;;;;5061871;28;20055;-76
2023/12/01 04:53:49;;;;;;;1.55;1.45;;;-0.10;90.70;;;;;;5095401;28;20479;-76
2023/12/01 04:56:15;;;;;;;1.45;1.35;;;-0.10;90.70;;;;;;5061621;28;20023;-76
2023/12/01 04:58:41;;;;;;;1.40;1.30;;;-0.10;90.70;;;;;;5061454;28;20031;-76
2023/12/01 05:01:07;;;;;;;1.30;1.20;;;-0.20;90.60;;;;;;5095035;28;20529;-76
2023/12/01 05:03:32;;;;;;;1.23;1.13;;;-0.20;90.70;;;;;;5095173;28;20035;-76
2023/12/01 05:05:58;;;;;;;1.02;1.02;;;-0.20;90.70;;;;;;5095193;28;20364;-76
2023/12/01 05:08:27;;;;;;;1.33;1.23;;;-0.20;90.70;;;;;;5094223;28;20173;-76
2023/12/01 05:10:54;;;;;;;1.13;1.10;;;-0.20;90.70;;;;;;5095638;28;20035;-76
2023/12/01 05:13:20;;;;;;;1.35;1.25;;;-0.20;90.70;;;;;;5095275;28;20036;-76
2023/12/01 05:15:46;;;;;;;1.05;1.05;;;-0.20;90.70;;;;;;5094931;28;20031;-76
2023/12/01 05:18:12;;;;;;;1.13;1.10;;;-0.20;90.70;;;;;;5061369;28;20502;-76
2023/12/01 05:20:39;;;;;;;1.00;1.00;;;-0.20;90.70;;;;;;5094972;28;20039;-76
2023/12/01 05:23:09;;;;;;;1.02;1.02;;;-0.20;90.70;;;;;;5094821;28;20035;-76
2023/12/01 05:25:37;;;;;;;1.00;1.00;;;-0.30;90.60;;;;;;5094460;28;20418;-76
2023/12/01 05:28:04;;;;;;;1.00;1.00;;;-0.30;90.70;;;;;;5112936;28;20028;-76
2023/12/01 05:30:36;;;;;;;1.00;1.00;;;-0.30;90.70;;;;;;5094710;28;20028;-76
2023/12/01 05:33:04;;;;;;;0.95;0.95;;;-0.30;90.70;;;;;;5094652;28;20019;-76
2023/12/01 05:35:31;;;;;;;1.02;1.02;;;-0.30;90.70;;;;;;5112964;28;20414;-76
2023/12/01 05:37:58;;;;;;;0.90;0.90;;;-0.30;90.70;;;;;;5094453;28;20024;-76
2023/12/01 05:40:36;;;;;;;1.00;1.00;;;-0.30;90.70;;;;;;5094433;28;20106;-76
2023/12/01 05:43:02;;;;;;;1.00;1.00;;;-0.30;90.70;;;;;;5094487;28;20030;-76
2023/12/01 05:45:29;;;;;;;1.40;1.30;;;-0.30;90.70;;;;;;5094354;28;20069;-76
2023/12/01 05:47:56;;;;;;;1.30;1.20;;;-0.40;90.70;;;;;;5077486;28;20076;-76
2023/12/01 05:50:27;;;;;;;1.52;1.42;;;-0.40;90.70;;;;;;5094194;28;20024;-76
2023/12/01 05:52:56;;;;;;;1.30;1.20;;;-0.40;90.70;;;;;;5094128;28;20069;-76
2023/12/01 05:55:27;;;;;;;1.00;1.00;;;-0.40;90.70;;;;;;5094102;28;20022;-76
2023/12/01 05:58:04;;;;;;;1.23;1.13;;;-0.40;90.70;;;;;;5094072;28;20461;-76
2023/12/01 06:00:30;;;;;;;;;;;-0.40;90.70;;;;;;5094348;28;20030;-76
2023/12/01 06:02:58;;;;;;;1.30;1.20;;;-0.40;90.70;;;;;;5112437;28;20264;-77
2023/12/01 06:05:24;;;;;;;1.08;1.08;;;-0.40;90.70;;;;;;5077205;28;20089;-76
2023/12/01 06:07:56;;;;;;;1.17;1.13;;;-0.40;90.60;;;;;;5094003;28;20039;-76
2023/12/01 06:10:23;;;;;;;1.30;1.20;;;-0.40;90.60;;;;;;5094112;28;20023;-76
2023/12/01 06:12:50;;;;;;;1.00;1.00;;;-0.40;90.70;;;;;;5094169;28;20027;-76
2023/12/01 06:15:17;;;;;;;1.30;1.20;;;-0.40;90.70;;;;;;5077113;28;20031;-76
2023/12/01 06:17:45;;;;;;;1.10;1.10;;;-0.40;90.70;;;;;;5093695;28;20031;-76
2023/12/01 06:20:19;;;;;;;1.33;1.23;;;-0.40;90.70;;;;;;5076236;28;20380;-76
2023/12/01 06:22:58;;;;;;;1.00;1.00;;;-0.40;90.70;;;;;;5111871;28;20106;-76
2023/12/01 06:25:29;;;;;;;0.98;0.98;;;-0.40;90.70;;;;;;5111730;28;20074;-76
2023/12/01 06:27:56;;;;;;;1.23;1.13;;;-0.40;90.70;;;;;;5093616;28;20590;-76
2023/12/01 06:30:23;;;;;;;1.00;1.00;;;-0.40;90.70;;;;;;5093619;28;20028;-76
2023/12/01 06:32:50;;;;;;;1.00;1.00;;;-0.40;90.70;;;;;;5093387;28;20023;-76
2023/12/01 06:35:17;;;;;;;1.10;1.10;;;-0.50;90.70;;;;;;5060360;28;20024;-76
2023/12/01 06:37:44;;;;;;;1.30;1.20;;;-0.50;90.70;;;;;;5093239;28;20383;-77
2023/12/01 06:40:12;;;;;;;1.10;1.10;;;-0.50;90.70;;;;;;5092965;28;20062;-76
2023/12/01 06:42:56;;;;;;;1.00;1.00;;;-0.50;90.70;;;;;;5076649;28;20023;-76
2023/12/01 06:45:23;;;;;;;1.15;1.10;;;-0.50;90.70;;;;;;5093331;28;20055;-76
2023/12/01 06:47:50;;;;;;;1.00;1.00;;;-0.50;90.70;;;;;;5093034;28;20051;-76
2023/12/01 06:50:21;;;;;;;1.27;1.17;;;-0.50;90.70;;;;;;5093313;28;20073;-76
2023/12/01 06:52:49;;;;;;;1.30;1.20;;;-0.50;90.80;;;;;;5093194;28;20092;-76
2023/12/01 06:55:15;;;;;;;1.23;1.13;;;-0.40;90.80;;;;;;5111448;28;20024;-76
2023/12/01 06:57:43;;;;;;;1.00;1.00;;;-0.40;90.80;;;;;;5093013;28;20023;-76
2023/12/01 07:00:21;;;;;;;1.30;1.20;;;-0.40;90.80;;;;;;5111292;28;20067;-76
2023/12/01 07:02:48;;;;;;;1.10;1.10;;;-0.40;90.80;;;;;;5077998;28;20050;-76
2023/12/01 07:05:19;;;;;;;1.00;1.00;;;-0.40;90.70;;;;;;5092955;28;20535;-76
2023/12/01 07:07:47;;;;;;;1.00;1.00;;;-0.40;90.70;;;;;;5092679;28;20052;-76
2023/12/01 07:10:13;;;;;;;1.08;1.08;;;-0.40;90.90;;;;;;5111187;28;20072;-76
2023/12/01 07:12:39;;;;;;;1.25;1.15;;;-0.40;90.70;;;;;;5111383;28;20076;-76
2023/12/01 07:15:11;;;;;;;1.00;1.00;;;-0.40;90.70;;;;;;5093028;28;20417;-76
2023/12/01 07:17:38;;;;;;;1.13;1.10;;;-0.40;90.70;;;;;;5094030;28;20371;-76
2023/12/01 07:20:13;;;;;;;1.10;1.10;;;-0.40;90.70;;;;;;5093234;28;20024;-76
2023/12/01 07:22:40;;;;;;;0.93;0.93;;;-0.40;90.70;;;;;;5077338;28;20088;-76
2023/12/01 07:25:10;;;;;;;1.27;1.17;;;-0.40;90.80;;;;;;5092826;28;20047;-76
2023/12/01 07:27:39;;;;;;;0.90;0.90;;;-0.40;90.80;;;;;;5077434;28;20501;-76
2023/12/01 07:30:06;;;;;;;0.90;0.90;;;-0.40;90.80;;;;;;5059146;28;20479;-76
2023/12/01 07:32:32;;;;;;;1.00;1.00;;;-0.40;90.80;;;;;;5113469;28;20024;-76
2023/12/01 07:34:58;;;;;;;1.10;1.10;;;-0.40;90.80;;;;;;5079573;28;20038;-76
2023/12/01 07:37:24;;;;;;;1.00;1.00;;;-0.40;90.80;;;;;;5096363;28;20114;-76
2023/12/01 07:39:50;;;;;;;0.90;0.90;;;-0.40;90.80;;;;;;5063024;28;20126;-76
2023/12/01 07:42:17;;;;;;;1.00;1.00;;;-0.40;90.70;;;;;;5096759;28;20325;-76
2023/12/01 07:44:43;;;;;;;1.00;1.00;;;-0.30;90.80;;;;;;5063563;28;20031;-76
2023/12/01 07:47:11;;;;;;;1.00;1.00;;;-0.40;90.70;;;;;;5114792;28;20089;-77
2023/12/01 07:49:38;;;;;;;0.80;0.80;;;-0.40;90.70;;;;;;5063636;28;20090;-76
2023/12/01 07:52:06;;;;;;;0.85;0.85;;;-0.40;90.70;;;;;;5096205;28;20027;-76
2023/12/01 07:54:33;;;;;;;0.85;0.85;;;-0.40;90.70;;;;;;5063233;28;20035;-76
2023/12/01 07:56:59;;;;;;;0.90;0.90;;;-0.40;90.70;;;;;;5096369;28;20047;-76
2023/12/01 07:59:24;;;;;;;0.80;0.80;;;-0.40;90.80;;;;;;5079139;28;20035;-76
2023/12/01 08:01:51;;;;;;;1.02;1.02;;;-0.40;90.70;;;;;;5095779;28;20411;-76
2023/12/01 08:04:16;;;;;;;0.88;0.88;;;-0.40;90.70;;;;;;5095915;28;20031;-76
2023/12/01 08:06:42;;;;;;;0.90;0.90;;;-0.40;90.70;;;;;;5114232;28;20031;-76
2023/12/01 08:09:09;;;;;;;0.90;0.90;;;-0.50;90.80;;;;;;5078911;28;20133;-76
2023/12/01 08:11:34;;;;;;;;;;;-0.40;90.80;;;;;;5079516;28;20399;-76
2023/12/01 08:14:03;;;;;;;0.73;0.73;;;-0.40;90.80;;;;;;5095826;28;19912;-76
2023/12/01 08:16:29;;;;;;;0.80;0.80;;;-0.50;90.70;;;;;;5079504;28;20024;-75
2023/12/01 08:18:58;;;;;;;0.80;0.80;;;-0.50;90.70;;;;;;5062362;28;20036;-76
2023/12/01 08:21:24;;;;;;;0.90;0.90;;;-0.50;90.80;;;;;;5095978;28;20034;-76
2023/12/01 08:23:49;;;;;;;0.90;0.90;;;-0.40;90.80;;;;;;5079191;28;20040;-76
2023/12/01 08:26:15;;;;;;;1.00;1.00;;;-0.40;90.80;;;;;;5078427;28;20127;-76
2023/12/01 08:28:41;;;;;;;0.82;0.82;;;-0.40;90.80;;;;;;5095621;28;20036;-76
2023/12/01 08:31:07;;;;;;;1.00;1.00;;;-0.40;90.80;;;;;;5095882;28;20031;-76
2023/12/01 08:33:35;;;;;;;0.90;0.90;;;-0.40;90.90;;;;;;5078556;28;20063;-76
2023/12/01 08:36:01;;;;;;;0.82;0.82;;;-0.40;90.90;;;;;;5078775;28;20379;-76
2023/12/01 08:38:27;;;;;;;0.80;0.80;;;-0.30;90.80;;;;;;5113558;28;20034;-76
2023/12/01 08:40:53;;;;;;;0.80;0.80;;;-0.30;90.80;;;;;;5061226;28;20453;-76
2023/12/01 08:43:18;;;;;;;0.88;0.88;;;-0.20;90.90;;;;;;5094072;28;20035;-76
2023/12/01 08:45:44;;;;;;;0.90;0.90;;;-0.20;90.90;;;;;;5078291;28;20036;-76
2023/12/01 08:48:10;;;;;;;0.90;0.90;;;-0.20;90.90;;;;;;5077763;28;20459;-76
2023/12/01 08:50:35;;;;;;;0.60;0.60;;;-0.20;90.90;;;;;;5061177;28;20032;-76
2023/12/01 08:53:02;;;;;;;0.60;0.60;;;-0.10;90.90;;;;;;5113020;28;20024;-81
2023/12/01 08:55:28;;;;;;;0.70;0.70;;;-0.10;90.90;;;;;;5114910;28;20024;-82
2023/12/01 08:57:54;;;;;;;0.60;0.60;;;0.00;91.00;;;;;;5095103;28;20032;-76
2023/12/01 09:00:23;;;;;;;0.52;0.52;;;0.10;91.00;;;;;;5061171;28;20036;-76
2023/12/01 09:02:49;;;;;;;0.50;0.50;;;0.50;91.70;;;;;;5094639;28;20551;-76
2023/12/01 09:05:17;;;;;;;;;;;1.10;92.30;;;;;;5094749;28;20035;-77
2023/12/01 09:07:44;;;;;;;0.22;0.22;;;1.90;92.50;;;;;;5094664;28;19927;-77
2023/12/01 09:10:09;;;;;;;0.32;0.32;;;2.50;92.30;;;;;;5062277;28;20483;-77
2023/12/01 09:12:36;;;;;;;0.30;0.30;;;3.00;92.20;;;;;;5077941;28;20039;-77
2023/12/01 09:15:02;;;;;;;0.30;0.30;;;3.40;92.00;;;;;;5077877;28;20031;-77
2023/12/01 09:17:27;;;;;;;0.25;0.25;;;3.50;91.60;;;;;;5077676;28;20123;-77
2023/12/01 09:19:53;;;;;;;0.20;0.20;;;3.50;91.30;;;;;;5077644;28;20031;-76
2023/12/01 09:22:18;;;;;;;0.25;0.25;;;3.40;91.30;;;;;;5060763;28;20475;-77
2023/12/01 09:24:45;;;;;;;0.30;0.30;;;3.40;91.50;;;;;;5077438;28;20048;-76
2023/12/01 09:27:10;;;;;;;;;;;3.40;91.70;;;;;;5078198;28;20039;-76
2023/12/01 09:29:36;;;;;;;0.20;0.20;;;3.50;91.90;;;;;;5077305;28;19961;-76
2023/12/01 09:32:02;;;;;;;0.20;0.20;;;3.70;91.90;;;;;;5077373;28;20037;-77
2023/12/01 09:34:28;;;;;;;;;;;3.80;91.70;;;;;;5094793;28;20425;-77
2023/12/01 09:36:55;;;;;;;0.20;0.20;;;3.90;91.70;;;;;;5093798;28;19914;-77
2023/12/01 09:39:21;;;;;;;0.20;0.20;;;3.90;91.70;;;;;;5077252;28;20051;-77
2023/12/01 09:41:48;;;;;;;0.10;0.10;;;4.10;91.80;;;;;;5077373;28;20065;-77
2023/12/01 09:44:14;;;;;;;0.20;0.20;;;4.20;91.90;;;;;;5093627;28;20032;-76
2023/12/01 09:46:42;;;;;;;0.20;0.20;;;4.50;92.10;;;;;;5077144;28;20105;-77
2023/12/01 09:49:07;;;;;;;0.10;0.10;;;4.80;92.30;;;;;;5077673;28;20032;-77
2023/12/01 09:51:36;;;;;;;0.10;0.10;;;5.30;92.40;;;;;;5096054;28;20033;-76
2023/12/01 09:54:05;;;;;;;0.10;0.10;;;5.70;92.20;;;;;;5095557;28;20126;-77
2023/12/01 09:56:31;;;;;;;0.20;0.20;;;5.90;92.20;;;;;;5114193;28;20016;-77
2023/12/01 09:58:58;;;;;;;0.10;0.10;;;6.30;92.50;;;;;;5114417;28;20045;-76
2023/12/01 10:01:25;;;;;;;0.13;0.13;;;6.90;92.70;;;;;;5078850;28;20126;-77
2023/12/01 10:03:52;;;;;;;0.00;0.00;;;7.40;92.80;;;;;;5096014;28;20130;-77
2023/12/01 10:06:18;;;;;;;0.00;0.00;;;7.90;92.70;;;;;;5095278;28;20352;-76
2023/12/01 10:08:44;;;;;;;0.00;0.00;;;8.40;92.80;;;;;;5098806;28;20024;-77
2023/12/01 10:11:24;;;;;;;0.00;0.00;;;8.80;92.70;;;;;;5092485;28;20156;-77
2023/12/01 10:13:51;;;;;;;0.00;0.00;;;9.20;92.60;;;;;;5075227;28;20028;-77
2023/12/01 10:16:17;;;;;;;0.00;0.00;;;9.50;92.60;;;;;;5083790;28;20118;-76
2023/12/01 10:19:00;;;;;;;0.00;0.00;;;9.60;92.30;;;;;;5094992;28;20092;-77
2023/12/01 10:21:41;;;;;;;0.00;0.00;;;9.60;92.10;;;;;;5095331;28;20081;-76
2023/12/01 10:24:13;;;;;;;0.00;0.00;;;9.20;91.80;;;;;;5095659;28;20059;-77
2023/12/01 10:26:39;;;;;;;0.00;0.00;;;8.60;91.20;;;;;;5113652;28;20039;-77
2023/12/01 10:29:07;;;;;;;0.00;0.00;;;7.80;91.30;;;;;;5077928;28;20436;-76
2023/12/01 10:31:33;;;;;;;0.00;0.00;;;7.20;91.40;;;;;;5113896;28;20098;-76
2023/12/01 10:34:00;;;;;;;0.17;0.17;;;6.50;91.10;;;;;;5095792;28;20027;-77
2023/12/01 10:36:26;;;;;;;0.10;0.10;;;6.10;91.60;;;;;;5114406;28;20034;-77
2023/12/01 10:38:56;;;;;;;0.00;0.00;;;6.20;92.80;;;;;;5095354;28;20028;-78
2023/12/01 10:41:22;;;;;;;0.00;0.00;;;6.70;93.20;;;;;;5113712;28;20043;-77
2023/12/01 10:43:50;;;;;;;0.00;0.00;;;7.30;93.40;;;;;;5113285;28;20096;-77
2023/12/01 10:46:18;;;;;;;0.00;0.00;;;7.90;93.40;;;;;;5095118;28;20146;-77
2023/12/01 10:48:45;;;;;;;0.03;0.03;;;8.40;93.30;;;;;;5095189;28;20031;-77
2023/12/01 10:51:12;;;;;;;0.00;0.00;;;8.80;93.30;;;;;;5077877;28;20055;-77
2023/12/01 10:53:40;;;;;;;0.00;0.00;;;9.40;93.40;;;;;;5095635;28;20022;-77
2023/12/01 10:56:12;;;;;;;0.00;0.00;;;9.90;93.40;;;;;;5113487;28;20027;-77
2023/12/01 10:58:39;;;;;;;0.00;0.00;;;10.20;93.30;;;;;;5094354;28;20085;-77
2023/12/01 11:01:05;;;;;;;0.00;0.00;;;10.70;93.50;;;;;;5077226;28;20027;-76
2023/12/01 11:03:31;;;;;;;0.00;0.00;;;11.00;93.30;;;;;;5097607;28;20066;-78
2023/12/01 11:06:07;;;;;;;0.00;0.00;;;11.20;93.40;;;;;;5114092;28;20035;-76
2023/12/01 11:08:42;;;;;;;0.00;0.00;;;11.30;93.70;;;;;;5117228;28;20023;-77
2023/12/01 11:11:20;;;;;;;0.00;0.00;;;11.60;93.70;;;;;;5100223;28;20054;-81
2023/12/01 11:14:04;;;;;;;0.00;0.00;;;11.80;93.70;;;;;;5100517;28;20020;-77
2023/12/01 11:16:31;;;;;;;0.00;0.00;;;12.00;93.90;;;;;;5097722;28;20031;-75
2023/12/01 11:18:58;;;;;;;0.00;0.00;;;12.20;94.00;;;;;;5097781;28;20035;-77
2023/12/01 11:21:24;;;;;;;0.00;0.00;;;12.30;93.70;;;;;;5099049;28;20030;-79
2023/12/01 11:23:50;;;;;;;0.00;0.00;;;12.30;93.60;;;;;;5083638;28;20539;-79
2023/12/01 11:26:16;;;;;;;0.00;0.00;;;12.30;93.60;;;;;;5082440;28;20043;-78
2023/12/01 11:33:52;;;;;;;0.00;0.00;;;12.60;93.80;;;;;;5117093;28;20036;-79
2023/12/01 11:36:32;;;;;;;0.15;0.10;;;12.90;93.90;;;;;;5098523;28;20068;-78
2023/12/01 11:39:10;;;;;;;0.00;0.00;;;13.20;93.90;;;;;;5081309;28;20038;-72
2023/12/01 11:41:42;;;;;;;0.00;0.00;;;13.70;93.90;;;;;;5099920;28;20027;-81
2023/12/01 11:44:24;;;;;;;0.00;0.00;;;14.00;93.90;;;;;;5099875;28;20041;-76
2023/12/01 11:46:55;;;;;;;0.25;0.20;;;14.40;94.00;;;;;;5103916;28;20028;-77
2023/12/01 11:49:32;;;;;;;0.00;0.00;;;14.50;93.50;;;;;;5116277;28;20095;-74
2023/12/01 11:51:59;;;;;;;0.00;0.00;;;14.30;93.30;;;;;;5117190;28;20446;-76
2023/12/01 11:54:25;;;;;;;0.00;0.00;;;14.00;92.80;;;;;;5116834;28;20020;-77
2023/12/01 11:56:52;;;;;;;0.03;0.03;;;13.50;93.00;;;;;;5100456;28;20058;-80
2023/12/01 11:59:19;;;;;;;0.00;0.00;;;13.20;93.60;;;;;;5105002;28;20077;-81
2023/12/01 12:01:47;;;;;;;0.22;0.10;;;12.90;93.40;;;;;;5117883;28;20110;-76
2023/12/01 12:04:16;;;;;;;0.00;0.00;;;12.60;93.50;;;;;;5079714;28;20030;-72
2023/12/01 12:06:42;;;;;;;0.00;0.00;;;12.30;93.40;;;;;;5114513;28;20420;-72
2023/12/01 12:09:08;;;;;;;0.10;0.05;;;12.20;93.90;;;;;;5114127;28;20016;-69
2023/12/01 12:11:36;;;;;;;0.75;0.32;;;12.20;93.80;;;;;;5109952;28;20134;-72
2023/12/01 12:14:04;;;;;;;0.00;0.00;;;12.00;93.70;;;;;;5076639;28;20360;-72
2023/12/01 12:16:30;;;;;;;0.30;0.17;;;11.90;94.10;;;;;;5093919;28;20028;-71
2023/12/01 12:19:02;;;;;;;0.00;0.00;;;11.90;93.90;;;;;;5094479;28;20391;-76
2023/12/01 12:21:29;;;;;;;0.10;0.10;;;11.80;93.60;;;;;;5110236;28;20035;-73
2023/12/01 12:23:56;;;;;;;0.28;0.10;;;11.50;93.30;;;;;;5114928;28;20047;-72
2023/12/01 12:26:27;;;;;;;0.00;0.00;;;11.30;93.10;;;;;;5114145;28;20031;-71
2023/12/01 12:28:57;;;;;;;0.00;0.00;;;10.90;93.00;;;;;;5096064;28;20129;-71
2023/12/01 12:31:27;;;;;;;0.00;0.00;;;10.60;92.90;;;;;;5114358;28;20420;-71
2023/12/01 12:33:56;;;;;;;0.00;0.00;;;10.20;92.60;;;;;;5114304;28;20483;-73
2023/12/01 12:36:23;;;;;;;0.00;0.00;;;9.70;92.50;;;;;;5107600;28;20020;-71
2023/12/01 12:38:50;;;;;;;0.00;0.00;;;9.30;92.60;;;;;;5093776;28;20035;-70
2023/12/01 12:41:29;;;;;;;0.30;0.20;;;9.00;92.60;;;;;;5095874;28;20368;-71
2023/12/01 12:43:59;;;;;;;0.00;0.00;;;8.60;92.50;;;;;;5106346;28;20059;-72
2023/12/01 12:46:27;;;;;;;0.00;0.00;;;8.30;92.50;;;;;;5114062;28;20079;-71
2023/12/01 12:48:58;;;;;;;0.00;0.00;;;8.10;92.40;;;;;;5113904;28;20030;-72
2023/12/01 12:51:26;;;;;;;0.00;0.00;;;7.80;92.40;;;;;;5114308;28;20072;-72
2023/12/01 12:53:53;;;;;;;0.00;0.00;;;7.50;92.30;;;;;;5112967;28;20024;-75
2023/12/01 12:56:21;;;;;;;0.10;0.08;;;7.40;92.30;;;;;;5095130;28;20024;-75
2023/12/01 12:58:51;;;;;;;0.00;0.00;;;7.30;92.40;;;;;;5077299;28;20024;-76
2023/12/01 13:01:18;;;;;;;0.00;0.00;;;7.20;92.50;;;;;;5076815;28;20395;-75